Latest Coastal Weather Observations for Warrnambool

IDV60701

Issued at 3:32 pm EDT Saturday 21 October 2017 (issued every 10 minutes, with the page automatically refreshed every 10 minutes)

About coastal observations | Map of coastal stations | Coastal observations for VIC | Marine services | Other Formats
Station Details ID: 090186 Name: WARRNAMBOOL AIRPORT NDB Lat: -38.29 Lon: 142.45 Height: 70.8 m
Data from the previous 72 hours. | See also: Recent months at Warrnambool
Date/Time
EDT
Temp
°C
Wind Pressure Rain since
9am
mm
Weather Cloud Vis
km
Sea
Height
m
Swell
Dir  Spd
kts
Gust
kts
hPa Trend Height
m
Period
s
Dir
21/03:30pm 12.9 SW 18 23 1024.5 - 0.0 - Partly cloudy - - - - -
21/03:00pm 13.4 WSW 16 20 1024.8 - 0.0 - Cloudy - - - - -
21/02:30pm 12.8 WSW 14 19 1025.1 - 0.0 - Partly cloudy - - - - -
21/02:00pm 12.6 WSW 15 18 1025.3 - 0.0 - Partly cloudy - - - - -
21/01:30pm 13.1 SW 13 18 1025.5 - 0.0 - Partly cloudy - - - - -
21/01:00pm 13.4 WSW 12 18 1025.9 - 0.0 - Partly cloudy - - - - -
21/12:30pm 12.9 WSW 13 19 1026.2 - 0.0 - Partly cloudy - - - - -
21/12:00pm 13.0 WSW 13 17 1026.6 - 0.0 - Cloudy - - - - -
21/11:30am 12.1 WSW 16 21 1026.9 - 0.0 - Partly cloudy - - - - -
21/11:00am 11.8 WSW 14 19 1027.2 - 0.0 - Partly cloudy - - - - -
21/10:30am 12.8 SW 15 19 1027.4 - 0.0 - Partly cloudy - - - - -
21/10:00am 12.1 WSW 13 16 1027.5 - 0.0 - Partly cloudy - - - - -
21/09:30am 11.0 SW 7 11 1027.4 - 0.0 - Partly cloudy - - - - -
21/09:00am 10.9 SW 6 9 1027.5 - 0.0 - Cloudy - - - - -
21/08:30am 10.5 SW 10 12 1027.5 - 0.0 - Partly cloudy - - - - -
21/08:00am 10.2 SW 5 7 1027.3 - 0.0 - Partly cloudy 10 - - - -
21/07:30am 10.3 SW 9 13 1027.4 - 0.0 - Partly cloudy 10 - - - -
21/07:00am 10.4 SW 10 16 1027.2 - 0.0 - Partly cloudy 10 - - - -
21/06:30am 10.6 SW 11 14 1027.1 - 0.0 - Cloudy 10 - - - -
21/06:00am 10.6 SW 12 16 1027.1 - 0.0 - Cloudy 10 - - - -
21/05:30am 10.7 SW 12 16 1027.3 - 0.0 - Cloudy 10 - - - -
21/05:00am 10.5 SW 10 12 1027.2 - 0.0 - Cloudy 10 - - - -
21/04:30am 10.7 SW 9 16 1027.3 - 0.0 - Cloudy 10 - - - -
21/04:00am 10.6 SSW 10 13 1027.6 - 0.0 - Cloudy 10 - - - -
21/03:30am 10.6 SW 10 15 1027.9 - 0.0 - Cloudy 10 - - - -
21/03:00am 10.6 SW 7 11 1028.0 - 0.0 - Cloudy 10 - - - -
21/02:30am 10.6 SW 9 13 1028.5 - 0.0 - Cloudy 10 - - - -
21/02:00am 10.5 SW 7 13 1029.0 - 0.0 - Cloudy 10 - - - -
21/01:30am 10.2 SW 7 9 1029.3 - 0.0 - Cloudy 10 - - - -
21/01:00am 10.6 SW 11 15 1029.5 - 0.0 - Cloudy 10 - - - -
21/12:30am 10.2 SW 7 9 1029.6 - 0.0 - Cloudy 10 - - - -
21/12:00am 10.6 SW 12 15 1029.9 - 0.0 - Cloudy 10 - - - -
 
Date/Time
EDT
Temp
°C
Wind Pressure Rain since
9am
mm
Weather Cloud Vis
km
Sea
Height
m
Swell
Dir  Spd
kts
Gust
kts
hPa Trend Height
m
Period
s
Dir
20/11:30pm 10.7 SW 11 14 1030.2 - 0.0 - Cloudy 10 - - - -
20/11:00pm 10.5 SW 8 11 1030.1 - 0.0 - Cloudy 10 - - - -
20/10:30pm 10.4 SW 8 9 1030.2 - 0.0 - Cloudy 10 - - - -
20/10:00pm 10.5 SSW 8 11 1030.5 - 0.0 - Cloudy 10 - - - -
20/09:30pm 10.5 SW 10 12 1030.8 - 0.0 - Cloudy 10 - - - -
20/09:00pm 10.5 SW 10 13 1030.8 - 0.0 - Cloudy 10 - - - -
20/08:30pm 10.7 SSW 11 15 1030.6 - 0.0 - Cloudy 10 - - - -
20/08:00pm 10.6 SSW 8 9 1030.4 - 0.0 - Cloudy 10 - - - -
20/07:30pm 10.7 SW 11 16 1030.2 - 0.0 - Cloudy 10 - - - -
20/07:00pm 11.1 SSW 12 15 1030.0 - 0.0 - Cloudy 10 - - - -
20/06:30pm 11.3 SSW 13 17 1030.1 - 0.0 - Cloudy 10 - - - -
20/06:00pm 11.4 SSW 15 20 1029.9 - 0.0 - Cloudy 10 - - - -
20/05:30pm 11.9 SSW 14 18 1029.8 - 0.0 - Cloudy 10 - - - -
20/05:00pm 12.6 SSW 14 19 1029.8 - 0.0 - Cloudy 10 - - - -
20/04:30pm 12.1 SSW 14 19 1029.9 - 0.0 - Cloudy 10 - - - -
20/04:00pm 12.6 SW 15 19 1030.0 - 0.0 - Cloudy 10 - - - -
20/03:30pm 12.3 SW 16 21 1030.1 - 0.0 - Cloudy 10 - - - -
20/03:00pm 12.9 SSW 16 20 1030.1 - 0.0 - Cloudy 10 - - - -
20/02:30pm 13.7 SW 14 19 1030.2 - 0.0 - Cloudy 10 - - - -
20/02:00pm 13.8 SW 15 19 1030.2 - 0.0 - Cloudy 10 - - - -
20/01:30pm 13.2 SW 16 22 1030.1 - 0.0 - Cloudy 10 - - - -
20/01:00pm 12.6 SSW 16 21 1030.1 - 0.0 - Partly cloudy 10 - - - -
20/12:30pm 12.7 SSW 14 20 1030.1 - 0.0 - Cloudy 10 - - - -
20/12:00pm 12.3 SSW 16 21 1030.3 - 0.0 - Cloudy 10 - - - -
20/11:30am 14.1 SSW 14 20 1030.0 - 0.0 - Partly cloudy 10 - - - -
20/11:00am 13.8 SSW 15 22 1030.0 - 0.0 - Partly cloudy 10 - - - -
20/10:30am 12.8 SSW 15 19 1029.8 - 0.0 - Partly cloudy 10 - - - -
20/10:00am 12.3 SSW 15 20 1029.4 - 0.0 - Partly cloudy 10 - - - -
20/09:30am 11.9 SSW 15 19 1029.1 - 0.0 - Cloudy 10 - - - -
20/09:00am 11.8 SSW 16 21 1028.8 - 0.0 Rain Mostly cloudy 10 - - - -
20/08:30am 11.0 SW 15 20 1028.3 - 0.0 - Partly cloudy 10 - - - -
20/08:00am 11.3 SSW 13 18 1027.9 - 0.0 - Partly cloudy 10 - - - -
20/07:30am 10.5 SSW 13 15 1027.5 - 0.0 - Partly cloudy 10 - - - -
20/07:00am 10.2 SSW 11 17 1026.9 - 0.0 - Partly cloudy 10 - - - -
20/06:30am 9.5 SW 12 17 1026.5 - 0.0 - Partly cloudy 10 - - - -
20/06:00am 9.5 SW 13 17 1026.2 - 0.0 - Partly cloudy 10 - - - -
20/05:30am 10.3 SW 13 19 1025.9 - 0.0 - Partly cloudy 10 - - - -
20/05:00am 10.2 SW 15 20 1025.6 - 0.0 - Cloudy 10 - - - -
20/04:30am 10.3 SW 14 19 1025.4 - 0.0 - Partly cloudy 10 - - - -
20/04:00am 10.4 SW 13 18 1025.1 - 0.0 - Partly cloudy 10 - - - -
20/03:30am 10.7 SW 16 23 1025.0 - 0.0 - Partly cloudy 10 - - - -
20/03:00am 10.5 SW 15 19 1024.9 - 0.0 - Cloudy 10 - - - -
20/02:30am 11.6 SW 15 20 1024.8 - 0.0 - Partly cloudy 10 - - - -
20/02:00am 11.5 WSW 11 18 1024.9 - 0.0 - Partly cloudy 10 - - - -
20/01:30am 11.4 WSW 11 17 1025.0 - 0.0 - Partly cloudy 10 - - - -
20/01:00am 10.9 W 10 18 1024.9 - 0.0 - Partly cloudy 10 - - - -
20/12:30am 10.6 WNW 7 9 1024.7 - 0.0 - Partly cloudy 10 - - - -
20/12:00am 10.4 WNW 7 8 1024.5 - 0.0 Rain Partly cloudy 10 - - - -
 
Date/Time
EDT
Temp
°C
Wind Pressure Rain since
9am
mm
Weather Cloud Vis
km
Sea
Height
m
Swell
Dir  Spd
kts
Gust
kts
hPa Trend Height
m
Period
s
Dir
19/11:30pm 9.9 NW 7 8 1024.3 - 0.0 - Partly cloudy 10 - - - -
19/11:00pm 9.4 NW 6 8 1023.9 - 0.0 - Partly cloudy 10 - - - -
19/10:30pm 10.3 WNW 6 8 1023.8 - 0.0 - Partly cloudy 10 - - - -
19/10:00pm 10.7 WNW 7 9 1023.9 - 0.0 - Partly cloudy 10 - - - -
19/09:30pm 10.8 W 9 11 1023.4 - 0.0 - Partly cloudy 10 - - - -
19/09:00pm 10.8 W 8 10 1023.0 - 0.0 - Mostly cloudy 10 - - - -
19/08:30pm 11.7 NW 7 9 1022.9 - 0.0 - Partly cloudy 10 - - - -
19/08:00pm 11.8 W 8 11 1022.0 - 0.0 - Partly cloudy 10 - - - -
19/07:30pm 12.4 WSW 12 17 1021.3 - 0.0 - Partly cloudy 10 - - - -
19/07:00pm 13.0 WSW 13 19 1021.2 - 0.0 - Partly cloudy 10 - - - -
19/06:30pm 14.2 WSW 16 21 1020.8 - 0.0 - - 10 - - - -
19/06:00pm 14.2 WSW 14 19 1020.8 - 0.0 - Mostly cloudy 10 - - - -
19/05:30pm 14.4 WSW 16 21 1020.8 - 0.0 - Partly cloudy 10 - - - -
19/05:00pm 14.7 WSW 15 21 1020.4 - 0.0 - Partly cloudy 10 - - - -
19/04:30pm 15.0 WSW 17 21 1020.2 - 0.0 - Partly cloudy 10 - - - -
19/04:00pm 15.7 WSW 13 18 1020.2 - 0.0 - Partly cloudy 10 - - - -
19/03:30pm 15.2 WSW 16 22 1019.7 - 0.0 - Partly cloudy 10 - - - -
19/03:00pm 16.1 WSW 19 25 1019.7 - 0.0 - Mostly cloudy 10 - - - -
19/02:30pm 15.2 WSW 19 25 1019.5 - 0.0 - Partly cloudy 10 - - - -
19/02:00pm 16.3 WSW 19 24 1018.8 - 0.0 - Partly cloudy 10 - - - -
19/01:50pm 16.4 WSW 18 24 1018.7 - 0.0 - Partly cloudy 10 - - - -
19/01:30pm 15.2 WSW 16 21 1018.6 - 0.0 - Cloudy 10 - - - -
19/01:00pm 15.4 WSW 16 22 1017.9 - 0.0 - Cloudy 10 - - - -
19/12:30pm 16.0 W 17 24 1017.5 - 0.0 - Cloudy 10 - - - -
19/12:22pm 16.3 W 17 23 1017.3 - 0.0 - Cloudy 10 - - - -
19/12:21pm 16.5 WSW 17 23 1017.3 - 0.0 - Cloudy 10 - - - -
19/12:00pm 16.4 W 16 21 1016.9 - 0.0 - Cloudy 10 - - - -
19/11:45am 16.3 WSW 18 26 1016.6 - 0.0 - Partly cloudy 10 - - - -
19/11:35am 17.1 W 17 27 1016.4 - 0.0 - Partly cloudy 10 - - - -
19/11:30am 19.3 WNW 13 24 1016.3 - 0.0 - Partly cloudy 10 - - - -
19/11:00am 19.7 NW 14 19 1015.8 - 0.0 - Cloudy 10 - - - -
19/10:30am 20.1 NW 15 21 1015.3 - 0.0 - Partly cloudy 10 - - - -
19/10:00am 19.6 N 10 13 1015.1 - 0.0 - Partly cloudy 10 - - - -
19/09:30am 18.0 N 10 13 1014.8 - 0.0 - Partly cloudy 10 - - - -
19/09:00am 17.6 N 10 13 1014.9 - 11.4 - Cloudy 10 - - - -
19/08:30am 16.8 N 7 8 1014.6 - 11.4 - Partly cloudy - - - - -
19/08:00am 16.5 N 5 7 1014.6 - 11.4 - Partly cloudy - - - - -
19/07:30am 16.3 NE 7 10 1014.4 - 11.4 - Partly cloudy - - - - -
19/07:00am 16.1 NE 9 11 1014.1 - 11.4 - Partly cloudy - - - - -
19/06:30am 15.9 NNE 6 7 1014.4 - 10.2 - Partly cloudy - - - - -
19/06:09am 15.9 NNE 5 7 1014.5 - 9.8 - Partly cloudy 6 - - - -
19/06:00am 15.8 NNE 7 8 1014.8 - 9.6 Rain Cloudy 6 - - - -
19/05:54am 15.9 NE 5 8 1014.9 - 9.4 - Partly cloudy 5 - - - -
19/05:39am 15.9 NE 5 7 1014.7 - 9.0 - Partly cloudy 9 - - - -
19/05:30am 15.9 NE 4 6 1014.9 - 8.8 - Partly cloudy 6 - - - -
19/05:15am 15.9 NNE 4 5 1014.8 - 8.6 - Partly cloudy 5 - - - -
19/05:00am 15.9 CALM 0 0 1014.5 - 8.0 - Partly cloudy 10 - - - -
19/04:32am 15.8 W 2 5 1014.9 - 8.0 - Partly cloudy 10 - - - -
19/04:30am 15.8 WSW 3 5 1014.9 - 8.0 - Partly cloudy 10 - - - -
19/04:13am 15.8 W 5 6 1015.3 - 7.6 - Partly cloudy 5 - - - -
19/04:00am 15.8 SSW 5 7 1015.0 - 7.0 - Cloudy 10 - - - -
19/03:35am 15.9 SW 8 11 1014.7 - 6.6 - Partly cloudy 7 - - - -
19/03:30am 15.9 SW 8 11 1014.8 - 6.4 - Partly cloudy 6 - - - -
19/03:05am 16.1 WSW 11 14 1015.2 - 3.6 - Partly cloudy 5 - - - -
19/03:00am 16.3 WSW 11 15 1015.1 - 2.2 Showers Cloudy 10 - - - -
19/02:30am 16.9 SW 11 15 1014.7 - 1.8 - Partly cloudy 10 - - - -
19/02:26am 17.0 SW 12 16 1014.7 - 1.8 - Partly cloudy 10 - - - -
19/02:15am 17.4 WSW 17 21 1014.5 - 1.6 - Partly cloudy 5 - - - -
19/02:00am 20.1 WSW 17 23 1014.6 - 0.0 - Partly cloudy 10 - - - -
19/01:53am 21.2 W 18 31 1014.3 - 0.0 - Partly cloudy 10 - - - -
19/01:46am 22.9 WNW 11 31 1013.3 - 0.0 - Partly cloudy 10 - - - -
19/01:30am 21.0 N 12 16 1012.6 - 0.0 - Partly cloudy 10 - - - -
19/01:00am 21.2 NNE 15 21 1012.6 - 0.0 - Partly cloudy 10 - - - -
19/12:30am 21.4 NE 11 15 1012.7 - 0.0 - Partly cloudy 10 - - - -
19/12:00am 21.1 NNE 5 7 1012.9 - 0.0 - Mostly cloudy 10 - - - -
 
Date/Time
EDT
Temp
°C
Wind Pressure Rain since
9am
mm
Weather Cloud Vis
km
Sea
Height
m
Swell
Dir  Spd
kts
Gust
kts
hPa Trend Height
m
Period
s
Dir
18/11:30pm 22.4 N 10 16 1013.8 - 0.0 - Partly cloudy 10 - - - -
18/11:00pm 23.4 N 9 13 1014.1 - 0.0 - Partly cloudy 10 - - - -
18/10:30pm 23.1 NNW 8 18 1014.5 - 0.0 - Cloudy 10 - - - -
18/10:00pm 23.1 N 8 9 1014.7 - 0.0 - Cloudy 10 - - - -
18/09:30pm 23.2 NNE 7 11 1014.7 - 0.0 - Partly cloudy 10 - - - -
18/09:00pm 23.1 NNE 10 11 1014.5 - 0.0 - Cloudy 10 - - - -
18/08:30pm 23.5 NNE 6 8 1014.4 - 0.0 - Cloudy 10 - - - -
18/08:00pm 24.5 NNE 7 9 1014.4 - 0.0 - Cloudy 10 - - - -
18/07:30pm 25.7 NNE 7 12 1014.2 - 0.0 - Cloudy 10 - - - -
18/07:00pm 27.6 NNE 6 7 1014.2 - 0.0 - Partly cloudy 10 - - - -
18/06:30pm 28.9 N 6 8 1014.3 - 0.0 - Partly cloudy 10 - - - -
18/06:00pm 29.1 N 8 9 1014.3 - 0.0 - - 10 - - - -
18/05:30pm 29.9 N 9 13 1014.3 - 0.0 - - 10 - - - -
18/05:00pm 30.3 N 8 11 1014.4 - 0.0 - - 10 - - - -
18/04:30pm 30.0 NNW 9 16 1014.5 - 0.0 - - 10 - - - -
18/04:00pm 30.1 NNW 11 15 1014.8 - 0.0 - - 10 - - - -

Other Formats:

Comma delimited format used in spreadsheet applications
http://www.bom.gov.au/fwo/IDV60701/IDV60701.94837.axf

JavaScript Object Notation format (JSON) in row-major order
http://www.bom.gov.au/fwo/IDV60701/IDV60701.94837.json